Time;durP1;ratioP1;P1;durP2;ratioP2;P2;SDS_P1;SDS_P2;PMS_P1;PMS_P2;Temp;Humidity;BMP_temperature;BMP_pressure;BME280_temperature;BME280_humidity;BME280_pressure;Samples;Min_cycle;Max_cycle;Signal;HPM_P1;HPM_P2
2021/07/29 00:00:53;;;;;;;6.65;3.17;;;17.00;99.90;;;;;;5029771;28;20215;-69
2021/07/29 00:03:20;;;;;;;8.48;3.35;;;16.90;99.90;;;;;;5031726;28;20218;-69
2021/07/29 00:05:49;;;;;;;4.03;2.60;;;16.90;99.90;;;;;;5031553;28;20200;-69
2021/07/29 00:08:17;;;;;;;5.28;2.95;;;16.90;99.90;;;;;;5032240;28;20669;-68
2021/07/29 00:10:44;;;;;;;4.45;2.83;;;17.00;99.90;;;;;;5030179;28;20218;-69
2021/07/29 00:13:11;;;;;;;4.97;2.90;;;17.00;99.90;;;;;;5031749;28;20569;-69
2021/07/29 00:15:38;;;;;;;4.68;3.08;;;16.90;99.90;;;;;;5321493;23;20577;-76
2021/07/29 00:20:50;;;;;;;5.80;3.10;;;16.80;99.90;;;;;;5005788;28;20674;-73
2021/07/29 00:23:17;;;;;;;4.50;2.63;;;16.90;99.90;;;;;;5010266;28;20940;-72
2021/07/29 00:25:44;;;;;;;4.78;2.78;;;16.80;99.90;;;;;;5008399;28;20200;-72
2021/07/29 00:28:10;;;;;;;5.65;2.72;;;16.80;99.90;;;;;;5010553;28;20211;-72
2021/07/29 00:30:37;;;;;;;5.43;2.85;;;16.60;99.90;;;;;;5007240;28;20215;-72
2021/07/29 00:33:04;;;;;;;6.03;2.70;;;16.50;99.90;;;;;;5007987;28;20301;-72
2021/07/29 00:35:31;;;;;;;3.75;2.72;;;16.50;99.90;;;;;;5004199;28;20238;-72
2021/07/29 00:38:02;;;;;;;5.45;2.78;;;16.40;99.90;;;;;;5006470;28;20209;-72
2021/07/29 00:40:29;;;;;;;3.55;2.50;;;16.40;99.90;;;;;;5004283;28;20208;-72
2021/07/29 00:42:57;;;;;;;4.03;2.60;;;16.50;99.90;;;;;;5004484;28;20235;-72
2021/07/29 00:45:24;;;;;;;5.47;2.95;;;16.50;99.90;;;;;;5010269;28;20214;-72
2021/07/29 00:47:51;;;;;;;4.63;2.88;;;16.50;99.90;;;;;;5005383;28;20201;-72
2021/07/29 00:50:18;;;;;;;4.72;2.70;;;16.60;99.90;;;;;;5006898;28;20201;-72
2021/07/29 00:52:48;;;;;;;2.58;2.38;;;16.70;99.90;;;;;;5006781;28;20235;-72
2021/07/29 00:55:17;;;;;;;6.15;2.70;;;16.60;99.90;;;;;;5007530;28;20200;-72
2021/07/29 00:57:44;;;;;;;3.63;2.83;;;16.50;99.90;;;;;;5007733;28;20211;-72
2021/07/29 01:00:12;;;;;;;5.13;2.90;;;16.50;99.90;;;;;;4999227;28;20204;-72
2021/07/29 01:02:39;;;;;;;3.67;2.72;;;16.40;99.90;;;;;;5008454;28;20214;-72
2021/07/29 01:05:08;;;;;;;3.78;2.80;;;16.30;99.90;;;;;;5008207;28;20599;-72
2021/07/29 01:07:35;;;;;;;3.60;2.88;;;16.20;99.90;;;;;;5010257;28;20569;-72
2021/07/29 01:10:04;;;;;;;6.03;3.08;;;16.20;99.90;;;;;;5003774;28;20659;-72
2021/07/29 01:12:32;;;;;;;4.22;3.20;;;16.20;99.90;;;;;;5009589;28;20208;-72
2021/07/29 01:14:59;;;;;;;3.53;2.70;;;16.30;99.90;;;;;;5008485;28;20211;-72
2021/07/29 01:17:26;;;;;;;4.00;2.88;;;16.10;99.90;;;;;;5009782;28;20691;-72
2021/07/29 01:19:53;;;;;;;4.65;2.95;;;16.10;99.90;;;;;;4999541;28;20681;-72
2021/07/29 01:22:21;;;;;;;5.10;3.30;;;16.10;99.90;;;;;;5004864;28;20208;-72
2021/07/29 01:24:48;;;;;;;6.70;2.60;;;16.20;99.90;;;;;;5007409;28;20584;-72
2021/07/29 01:27:19;;;;;;;7.72;2.90;;;16.30;99.90;;;;;;5008952;28;20492;-72
2021/07/29 01:29:47;;;;;;;4.10;2.85;;;16.20;99.90;;;;;;5004231;28;20212;-72
2021/07/29 01:32:14;;;;;;;6.28;3.13;;;16.30;99.90;;;;;;5007692;28;20213;-72
2021/07/29 01:34:42;;;;;;;4.65;3.10;;;16.30;99.90;;;;;;5006950;28;20266;-72
2021/07/29 01:37:09;;;;;;;4.28;2.70;;;16.30;99.90;;;;;;5007930;28;20224;-72
2021/07/29 01:39:37;;;;;;;4.90;2.83;;;16.30;99.90;;;;;;5008833;28;20228;-72
2021/07/29 01:42:04;;;;;;;4.70;2.78;;;16.40;99.90;;;;;;5003116;28;20209;-72
2021/07/29 01:44:31;;;;;;;4.50;2.88;;;16.50;99.90;;;;;;5008324;28;20647;-72
2021/07/29 01:46:58;;;;;;;5.18;2.92;;;16.40;99.90;;;;;;5008445;28;20203;-72
2021/07/29 01:49:25;;;;;;;5.53;3.28;;;16.20;99.90;;;;;;5010751;28;20200;-72
2021/07/29 01:51:52;;;;;;;5.70;3.05;;;16.20;99.90;;;;;;5009801;28;20211;-72
2021/07/29 01:54:19;;;;;;;4.97;3.35;;;16.30;99.90;;;;;;5004006;28;20197;-72
2021/07/29 01:56:47;;;;;;;5.07;3.00;;;16.30;99.90;;;;;;5008633;28;20227;-72
2021/07/29 01:59:14;;;;;;;6.95;3.33;;;16.50;99.90;;;;;;5013466;28;20211;-72
2021/07/29 02:01:41;;;;;;;7.63;3.45;;;16.50;99.90;;;;;;5012778;28;20212;-72
2021/07/29 02:04:08;;;;;;;7.45;3.13;;;16.40;99.90;;;;;;5012193;28;20196;-72
2021/07/29 02:06:37;;;;;;;4.85;3.17;;;16.50;99.90;;;;;;5013248;28;20243;-72
2021/07/29 02:09:04;;;;;;;5.53;2.95;;;16.40;99.90;;;;;;5010718;28;20212;-72
2021/07/29 02:11:34;;;;;;;7.32;3.13;;;16.50;99.90;;;;;;5013799;28;20210;-73
2021/07/29 02:14:02;;;;;;;6.47;3.28;;;16.50;99.90;;;;;;5008830;28;20302;-73
2021/07/29 02:16:30;;;;;;;4.18;3.25;;;16.60;99.90;;;;;;5012631;28;20217;-73
2021/07/29 02:18:57;;;;;;;6.22;3.08;;;16.50;99.90;;;;;;5013577;28;20204;-74
2021/07/29 02:21:24;;;;;;;5.00;3.40;;;16.40;99.90;;;;;;5012767;28;20209;-74
2021/07/29 02:23:50;;;;;;;10.45;3.55;;;16.30;99.90;;;;;;5013485;28;20196;-74
2021/07/29 02:26:17;;;;;;;6.57;3.53;;;16.40;99.90;;;;;;5013455;28;20211;-74
2021/07/29 02:28:44;;;;;;;3.88;3.20;;;16.30;99.90;;;;;;5011031;28;20208;-74
2021/07/29 02:31:12;;;;;;;5.57;3.58;;;16.30;99.90;;;;;;5006270;28;20589;-73
2021/07/29 02:33:39;;;;;;;4.55;3.20;;;16.20;99.90;;;;;;5013630;28;20201;-74
2021/07/29 02:36:06;;;;;;;6.32;3.63;;;16.30;99.90;;;;;;5013092;28;20287;-74
2021/07/29 02:38:33;;;;;;;4.60;3.22;;;16.30;99.90;;;;;;5013499;28;20569;-75
2021/07/29 02:41:00;;;;;;;4.97;3.63;;;16.20;99.90;;;;;;5012160;28;20200;-76
2021/07/29 02:43:27;;;;;;;5.68;3.50;;;16.30;99.90;;;;;;5013379;28;20651;-75
2021/07/29 02:45:54;;;;;;;6.30;3.72;;;16.20;99.90;;;;;;5007257;28;20212;-75
2021/07/29 02:48:22;;;;;;;4.55;3.35;;;16.10;99.90;;;;;;5015066;28;20208;-75
2021/07/29 02:50:53;;;;;;;10.02;4.25;;;16.20;99.90;;;;;;5002872;28;20200;-76
2021/07/29 02:53:20;;;;;;;6.13;3.90;;;16.10;99.90;;;;;;5012803;28;20243;-75
2021/07/29 02:55:47;;;;;;;6.00;3.85;;;16.10;99.90;;;;;;5019727;28;20196;-75
2021/07/29 02:58:14;;;;;;;4.80;3.65;;;16.10;99.90;;;;;;5013005;28;20200;-75
2021/07/29 03:00:41;;;;;;;6.28;3.72;;;16.10;99.90;;;;;;5012130;28;20200;-75
2021/07/29 03:03:08;;;;;;;6.00;3.53;;;15.90;99.90;;;;;;5016835;28;20557;-75
2021/07/29 03:05:36;;;;;;;6.30;3.53;;;15.90;99.90;;;;;;5023645;28;20226;-75
2021/07/29 03:08:03;;;;;;;6.25;3.70;;;15.90;99.90;;;;;;5003886;28;20626;-76
2021/07/29 03:10:30;;;;;;;7.80;3.85;;;16.00;99.90;;;;;;5012616;28;20204;-76
2021/07/29 03:12:56;;;;;;;7.20;3.92;;;15.70;99.90;;;;;;5014093;28;20647;-76
2021/07/29 03:15:23;;;;;;;8.07;3.80;;;15.80;99.90;;;;;;5013117;28;20221;-75
2021/07/29 03:17:50;;;;;;;5.55;3.58;;;15.80;99.90;;;;;;5012287;28;20224;-75
2021/07/29 03:20:18;;;;;;;6.03;3.63;;;15.80;99.90;;;;;;5016240;28;20192;-76
2021/07/29 03:22:46;;;;;;;5.40;3.38;;;15.70;99.90;;;;;;5014652;28;20227;-75
2021/07/29 03:25:13;;;;;;;5.32;3.38;;;15.80;99.90;;;;;;5013416;28;20410;-75
2021/07/29 03:27:40;;;;;;;5.78;3.90;;;16.00;99.90;;;;;;5013242;28;20818;-75
2021/07/29 03:30:07;;;;;;;5.43;3.50;;;16.00;99.90;;;;;;5012231;28;20205;-75
2021/07/29 03:32:34;;;;;;;9.93;3.90;;;15.90;99.90;;;;;;5012347;28;20547;-75
2021/07/29 03:35:01;;;;;;;4.25;3.35;;;16.00;99.90;;;;;;5013031;28;20219;-75
2021/07/29 03:37:28;;;;;;;4.50;3.50;;;15.90;99.90;;;;;;5012975;28;20254;-75
2021/07/29 03:40:03;;;;;;;8.30;3.40;;;16.00;99.90;;;;;;5011344;28;20206;-75
2021/07/29 03:42:30;;;;;;;5.22;3.25;;;16.00;99.90;;;;;;5012100;28;20520;-75
2021/07/29 03:44:57;;;;;;;5.32;3.50;;;16.00;99.90;;;;;;5012269;28;20204;-75
2021/07/29 03:47:24;;;;;;;6.07;3.55;;;16.10;99.90;;;;;;5013311;28;20197;-71
2021/07/29 03:49:51;;;;;;;4.13;3.13;;;16.10;99.90;;;;;;5012280;28;20204;-71
2021/07/29 03:52:18;;;;;;;8.40;3.30;;;16.10;99.90;;;;;;5013376;28;20572;-71
2021/07/29 03:54:45;;;;;;;5.90;3.28;;;16.10;99.90;;;;;;5019996;28;20210;-71
2021/07/29 03:57:13;;;;;;;3.80;3.40;;;16.20;99.90;;;;;;5012123;28;20216;-71
2021/07/29 03:59:40;;;;;;;5.10;3.40;;;16.10;99.90;;;;;;5012024;28;20646;-71
2021/07/29 04:02:10;;;;;;;3.70;3.17;;;16.10;99.90;;;;;;5002503;28;20296;-71
2021/07/29 04:04:39;;;;;;;5.03;3.17;;;16.20;99.90;;;;;;5007767;28;20222;-71
2021/07/29 04:07:06;;;;;;;8.05;3.70;;;16.20;99.90;;;;;;5007567;28;20235;-71
2021/07/29 04:09:34;;;;;;;6.03;3.38;;;16.20;99.90;;;;;;5007455;28;20573;-71
2021/07/29 04:12:01;;;;;;;7.15;3.72;;;16.20;99.90;;;;;;5011065;28;20215;-71
2021/07/29 04:14:29;;;;;;;4.00;3.22;;;16.20;99.90;;;;;;5008544;28;20560;-71
2021/07/29 04:16:57;;;;;;;5.65;3.63;;;16.30;99.90;;;;;;5008002;28;20224;-71
2021/07/29 04:19:24;;;;;;;4.55;3.42;;;16.20;99.90;;;;;;5009746;28;20236;-71
2021/07/29 04:21:51;;;;;;;5.85;3.88;;;16.30;99.90;;;;;;5010882;28;20212;-71
2021/07/29 04:24:18;;;;;;;3.80;3.20;;;16.30;99.90;;;;;;5010646;28;20559;-71
2021/07/29 04:26:46;;;;;;;4.50;3.45;;;16.40;99.90;;;;;;5009526;28;20205;-71
2021/07/29 04:29:12;;;;;;;5.07;3.70;;;16.40;99.90;;;;;;5009661;28;20208;-71
2021/07/29 04:31:41;;;;;;;4.65;3.80;;;16.40;99.90;;;;;;5010754;28;20582;-72
2021/07/29 04:34:07;;;;;;;4.85;3.42;;;16.40;99.90;;;;;;5002211;28;20209;-71
2021/07/29 04:36:40;;;;;;;4.78;3.58;;;16.30;99.90;;;;;;5010772;28;20208;-71
2021/07/29 04:39:07;;;;;;;4.82;3.60;;;16.20;99.90;;;;;;5010220;28;20661;-71
2021/07/29 04:41:34;;;;;;;5.47;3.40;;;16.30;99.90;;;;;;5010666;28;20216;-72
2021/07/29 04:44:01;;;;;;;3.92;3.42;;;16.30;99.90;;;;;;5012202;28;20205;-71
2021/07/29 04:46:28;;;;;;;7.05;3.88;;;16.40;99.90;;;;;;5011368;28;20206;-72
2021/07/29 04:48:57;;;;;;;4.13;3.65;;;16.30;99.90;;;;;;5012327;28;20203;-71
2021/07/29 04:51:24;;;;;;;5.45;3.47;;;16.30;99.90;;;;;;5010889;28;20295;-72
2021/07/29 04:53:51;;;;;;;3.80;3.03;;;16.30;99.90;;;;;;5011823;28;20204;-72
2021/07/29 04:56:18;;;;;;;6.10;3.67;;;16.40;99.90;;;;;;4992884;28;20547;-71
2021/07/29 04:58:44;;;;;;;4.45;3.38;;;16.40;99.90;;;;;;5010668;28;20238;-71
2021/07/29 05:01:11;;;;;;;5.68;3.50;;;16.40;99.90;;;;;;5010519;28;20204;-71
2021/07/29 05:03:38;;;;;;;5.13;2.88;;;16.40;99.90;;;;;;5012077;28;20204;-71
2021/07/29 05:06:06;;;;;;;5.22;3.10;;;16.40;99.90;;;;;;5010272;28;20201;-71
2021/07/29 05:08:35;;;;;;;3.17;2.88;;;16.40;99.90;;;;;;5011908;28;20218;-71
2021/07/29 05:11:03;;;;;;;6.72;3.35;;;16.30;99.90;;;;;;5010282;28;20206;-71
2021/07/29 05:13:29;;;;;;;6.38;3.40;;;16.40;99.90;;;;;;5011931;28;20208;-71
2021/07/29 05:15:56;;;;;;;5.68;2.92;;;16.30;99.90;;;;;;5010942;28;20592;-71
2021/07/29 05:18:23;;;;;;;3.90;3.08;;;16.40;99.90;;;;;;5011934;28;20250;-71
2021/07/29 05:20:50;;;;;;;3.97;3.35;;;16.50;99.90;;;;;;5010135;28;20818;-71
2021/07/29 05:23:18;;;;;;;5.20;3.17;;;16.40;99.90;;;;;;5012126;28;20208;-71
2021/07/29 05:25:45;;;;;;;4.70;3.20;;;16.40;99.90;;;;;;5010316;28;20531;-71
2021/07/29 05:28:12;;;;;;;4.88;3.03;;;16.40;99.90;;;;;;5011761;28;20559;-72
2021/07/29 05:30:38;;;;;;;4.03;3.40;;;16.40;99.90;;;;;;5011350;28;20200;-72
2021/07/29 05:33:05;;;;;;;3.97;2.90;;;16.40;99.90;;;;;;5010311;28;20206;-72
2021/07/29 05:35:32;;;;;;;5.70;3.08;;;16.40;99.90;;;;;;5008477;28;20212;-72
2021/07/29 05:37:59;;;;;;;3.03;2.72;;;16.50;99.90;;;;;;5011480;28;20641;-72
2021/07/29 05:40:28;;;;;;;3.63;3.13;;;16.70;99.90;;;;;;5009602;28;20717;-71
2021/07/29 05:42:54;;;;;;;4.15;3.05;;;16.80;99.90;;;;;;5011246;28;20552;-71
2021/07/29 05:45:21;;;;;;;5.22;2.97;;;17.00;99.90;;;;;;5010498;28;20192;-72
2021/07/29 05:47:48;;;;;;;5.15;2.50;;;16.90;99.90;;;;;;5010891;28;20204;-72
2021/07/29 05:50:15;;;;;;;2.55;2.35;;;17.00;99.90;;;;;;5010930;28;20673;-71
2021/07/29 05:52:42;;;;;;;3.35;2.17;;;17.10;99.90;;;;;;5010365;28;20205;-72
2021/07/29 05:55:10;;;;;;;5.25;2.83;;;17.20;99.90;;;;;;5010982;28;20738;-71
2021/07/29 05:57:38;;;;;;;2.45;2.20;;;17.20;99.90;;;;;;5010745;28;20212;-71
2021/07/29 06:00:06;;;;;;;3.45;2.40;;;17.20;99.90;;;;;;5009702;28;20200;-72
2021/07/29 06:02:33;;;;;;;4.40;2.63;;;17.30;99.90;;;;;;5008984;28;20568;-72
2021/07/29 06:05:00;;;;;;;2.72;1.98;;;17.20;99.90;;;;;;5010714;28;20197;-72
2021/07/29 06:07:28;;;;;;;4.57;2.70;;;17.20;99.90;;;;;;5010605;28;20192;-72
2021/07/29 06:09:55;;;;;;;3.15;2.42;;;17.10;99.90;;;;;;5010385;28;20659;-72
2021/07/29 06:12:24;;;;;;;4.15;2.63;;;17.20;99.90;;;;;;5010948;28;20204;-72
2021/07/29 06:14:54;;;;;;;4.95;2.92;;;17.20;99.90;;;;;;5010135;28;20254;-72
2021/07/29 06:17:24;;;;;;;2.65;2.30;;;17.20;99.90;;;;;;5011055;28;20220;-72
2021/07/29 06:19:51;;;;;;;3.63;2.33;;;17.10;99.90;;;;;;5009564;28;20193;-72
2021/07/29 06:22:18;;;;;;;2.47;2.20;;;17.10;99.90;;;;;;5010056;28;20208;-71
2021/07/29 06:24:45;;;;;;;4.72;2.38;;;17.00;99.90;;;;;;5010678;28;20654;-71
2021/07/29 06:27:12;;;;;;;3.83;2.20;;;17.00;99.90;;;;;;5010664;28;20201;-71
2021/07/29 06:29:38;;;;;;;5.22;2.80;;;17.10;99.90;;;;;;5003845;28;20208;-71
2021/07/29 06:32:08;;;;;;;3.53;2.45;;;17.20;99.90;;;;;;5007686;28;20207;-71
2021/07/29 06:34:37;;;;;;;5.68;2.38;;;17.30;99.90;;;;;;5006696;28;20216;-71
2021/07/29 06:37:05;;;;;;;4.25;2.97;;;17.30;99.90;;;;;;5007051;28;20258;-71
2021/07/29 06:39:32;;;;;;;5.10;3.00;;;17.50;99.90;;;;;;4997350;28;20598;-72
2021/07/29 06:41:59;;;;;;;2.63;2.42;;;17.50;99.90;;;;;;5005001;28;20207;-71
2021/07/29 06:44:26;;;;;;;6.68;2.72;;;17.40;99.90;;;;;;5008411;28;20200;-72
2021/07/29 06:46:53;;;;;;;3.63;2.20;;;17.50;99.90;;;;;;5004040;28;20200;-72
2021/07/29 06:49:21;;;;;;;3.80;2.55;;;17.40;99.90;;;;;;5009439;28;20200;-72
2021/07/29 06:51:48;;;;;;;4.38;2.10;;;17.30;99.90;;;;;;5010713;28;20441;-72
2021/07/29 06:54:14;;;;;;;7.50;2.30;;;17.30;99.90;;;;;;5011071;28;20575;-72
2021/07/29 06:56:41;;;;;;;5.05;2.25;;;17.40;99.90;;;;;;5008046;28;20208;-72
2021/07/29 06:59:08;;;;;;;2.45;2.13;;;17.30;99.90;;;;;;5009257;28;20236;-72
2021/07/29 07:01:36;;;;;;;6.45;2.58;;;17.30;99.90;;;;;;5007335;28;20217;-71
2021/07/29 07:04:03;;;;;;;2.67;2.45;;;17.30;99.90;;;;;;5005273;28;20208;-71
2021/07/29 07:06:33;;;;;;;4.72;2.40;;;17.30;99.90;;;;;;5008912;28;20197;-72
2021/07/29 07:09:01;;;;;;;4.72;1.90;;;17.40;99.90;;;;;;5004725;28;20200;-71
2021/07/29 07:11:27;;;;;;;3.92;2.28;;;17.50;99.90;;;;;;5005949;28;20204;-72
2021/07/29 07:13:55;;;;;;;2.38;1.90;;;17.50;99.90;;;;;;5010896;28;20208;-77
2021/07/29 07:16:22;;;;;;;3.97;2.03;;;17.60;99.90;;;;;;5012399;28;20628;-71
2021/07/29 07:18:49;;;;;;;4.05;2.28;;;17.80;99.90;;;;;;5009110;28;20546;-72
2021/07/29 07:21:15;;;;;;;3.72;2.35;;;18.20;99.90;;;;;;5009784;28;20651;-72
2021/07/29 07:23:44;;;;;;;5.00;2.30;;;18.20;99.90;;;;;;5009594;28;20219;-72
2021/07/29 07:26:15;;;;;;;2.60;2.22;;;18.30;99.90;;;;;;5008477;28;20204;-72
2021/07/29 07:28:42;;;;;;;3.60;2.17;;;18.20;99.90;;;;;;5007244;28;20204;-71
2021/07/29 07:31:09;;;;;;;2.90;2.40;;;18.00;99.90;;;;;;5009723;28;20201;-72
2021/07/29 07:33:36;;;;;;;4.60;2.00;;;18.10;99.90;;;;;;5011554;28;20674;-71
2021/07/29 07:36:03;;;;;;;3.97;1.77;;;18.20;99.90;;;;;;5009694;28;20420;-72
2021/07/29 07:38:30;;;;;;;6.22;2.03;;;18.30;99.90;;;;;;5009406;28;20224;-71
2021/07/29 07:41:05;;;;;;;4.13;2.20;;;18.60;99.90;;;;;;5012906;28;20208;-72
2021/07/29 07:43:33;;;;;;;4.70;2.03;;;18.80;99.90;;;;;;5012857;28;20212;-71
2021/07/29 07:46:00;;;;;;;4.00;2.15;;;18.70;99.90;;;;;;5013059;28;20211;-72
2021/07/29 07:48:27;;;;;;;3.45;2.38;;;18.60;99.90;;;;;;5013308;28;20203;-71
2021/07/29 07:50:54;;;;;;;5.03;2.35;;;18.50;99.90;;;;;;5012343;28;20218;-72
2021/07/29 07:53:24;;;;;;;3.00;2.10;;;18.60;99.90;;;;;;5012549;28;20208;-72
2021/07/29 07:55:51;;;;;;;4.68;2.38;;;18.80;99.90;;;;;;5016008;28;20200;-72
2021/07/29 07:58:19;;;;;;;6.45;2.40;;;18.90;99.90;;;;;;5014529;28;20270;-72
2021/07/29 08:00:46;;;;;;;2.88;2.20;;;18.80;99.90;;;;;;5011162;28;20201;-72
2021/07/29 08:03:13;;;;;;;3.25;2.28;;;18.80;99.90;;;;;;5012746;28;20200;-72
2021/07/29 08:05:40;;;;;;;3.10;2.30;;;18.70;99.90;;;;;;5012580;28;20211;-72
2021/07/29 08:08:08;;;;;;;5.45;2.50;;;18.60;99.90;;;;;;5012843;28;20215;-72
2021/07/29 08:10:35;;;;;;;3.58;2.80;;;18.70;99.90;;;;;;5012403;28;20655;-71
2021/07/29 08:13:02;;;;;;;5.47;2.22;;;18.80;99.90;;;;;;5013392;28;20561;-72
2021/07/29 08:15:30;;;;;;;3.63;2.17;;;19.20;99.90;;;;;;5012022;28;20216;-72
2021/07/29 08:17:58;;;;;;;6.70;2.40;;;19.20;99.90;;;;;;5012641;28;20232;-72
2021/07/29 08:20:25;;;;;;;2.83;2.40;;;19.10;99.90;;;;;;5011314;28;20207;-72
2021/07/29 08:22:52;;;;;;;2.40;2.20;;;19.20;99.90;;;;;;5010521;28;20204;-72
2021/07/29 08:25:21;;;;;;;4.85;2.25;;;19.20;99.90;;;;;;5011529;28;20204;-72
2021/07/29 08:27:48;;;;;;;4.70;2.20;;;19.40;99.90;;;;;;5012400;28;20668;-72
2021/07/29 08:30:16;;;;;;;5.03;2.33;;;19.70;99.90;;;;;;5012112;28;20212;-72
2021/07/29 08:32:45;;;;;;;3.40;2.28;;;20.00;99.90;;;;;;5012452;28;20214;-72
2021/07/29 08:35:12;;;;;;;2.95;2.47;;;20.00;99.90;;;;;;5011922;28;20215;-72
2021/07/29 08:37:44;;;;;;;3.78;2.00;;;19.90;99.90;;;;;;5011964;28;20219;-72
2021/07/29 08:40:12;;;;;;;4.40;1.77;;;20.10;99.90;;;;;;5011709;28;20196;-72
2021/07/29 08:42:38;;;;;;;2.17;1.80;;;20.00;99.90;;;;;;5012139;28;20212;-72
2021/07/29 08:45:06;;;;;;;6.78;2.22;;;19.60;99.90;;;;;;5011430;28;20548;-72
2021/07/29 08:47:33;;;;;;;2.38;1.73;;;19.50;99.90;;;;;;5011311;28;20208;-72
2021/07/29 08:50:06;;;;;;;7.30;2.28;;;19.50;99.90;;;;;;5011439;28;20200;-72
2021/07/29 08:52:33;;;;;;;3.67;2.13;;;19.80;99.90;;;;;;5011877;28;20215;-72
2021/07/29 08:55:00;;;;;;;6.35;2.00;;;20.00;99.90;;;;;;5021594;28;20200;-72
2021/07/29 08:57:28;;;;;;;3.53;1.80;;;20.30;99.90;;;;;;5015014;28;20291;-72
2021/07/29 08:59:56;;;;;;;3.38;1.73;;;20.70;99.90;;;;;;5011313;28;20227;-72
2021/07/29 09:02:24;;;;;;;3.60;1.65;;;20.90;99.90;;;;;;5011854;28;20651;-72
2021/07/29 09:05:21;;;;;;;3.47;1.63;;;21.20;99.90;;;;;;5011487;28;20207;-72
2021/07/29 09:08:02;;;;;;;2.50;1.67;;;21.90;99.90;;;;;;4977115;28;20243;-72
2021/07/29 09:10:29;;;;;;;2.22;1.65;;;21.60;99.90;;;;;;5010500;28;20208;-72
2021/07/29 09:13:15;;;;;;;3.35;1.90;;;21.10;99.90;;;;;;5009955;28;20196;-71
2021/07/29 09:15:42;;;;;;;2.80;1.60;;;20.80;99.90;;;;;;5010764;28;20652;-72
2021/07/29 09:18:10;;;;;;;1.75;1.42;;;20.70;99.90;;;;;;5011148;28;20224;-72
2021/07/29 09:20:38;;;;;;;2.83;1.70;;;20.40;99.90;;;;;;5010233;28;20200;-72
2021/07/29 09:23:19;;;;;;;4.82;1.67;;;20.40;99.90;;;;;;5012000;28;20224;-72
2021/07/29 09:25:48;;;;;;;4.05;1.67;;;20.40;99.90;;;;;;5012759;28;20581;-72
2021/07/29 09:28:32;;;;;;;2.55;1.70;;;20.80;99.90;;;;;;5015436;28;20526;-71
2021/07/29 09:30:59;;;;;;;5.68;2.17;;;21.80;99.90;;;;;;5010867;28;20215;-72
2021/07/29 09:33:26;;;;;;;3.03;1.52;;;22.10;99.90;;;;;;5011997;28;20208;-72
2021/07/29 09:35:54;;;;;;;4.30;2.20;;;22.60;99.90;;;;;;5004787;28;20666;-72
2021/07/29 09:38:23;;;;;;;2.00;1.77;;;22.30;99.90;;;;;;5011423;28;20769;-71
2021/07/29 09:40:53;;;;;;;4.25;1.88;;;22.10;99.90;;;;;;5011721;28;20204;-72
2021/07/29 09:43:21;;;;;;;6.07;2.00;;;21.70;99.90;;;;;;5010844;28;20201;-72
2021/07/29 09:45:50;;;;;;;5.07;2.30;;;21.20;99.90;;;;;;5012830;28;20200;-71
2021/07/29 09:48:18;;;;;;;2.75;2.15;;;20.70;99.90;;;;;;5024694;28;20227;-72
2021/07/29 09:50:45;;;;;;;2.13;1.60;;;20.70;99.90;;;;;;5009608;28;20295;-72
2021/07/29 09:53:14;;;;;;;3.47;1.80;;;21.40;99.90;;;;;;5011263;28;20193;-72
2021/07/29 09:55:41;;;;;;;6.97;1.75;;;21.70;99.90;;;;;;5012571;28;20212;-72
2021/07/29 09:58:08;;;;;;;2.58;1.88;;;21.30;99.90;;;;;;5011997;28;20204;-72
2021/07/29 10:00:38;;;;;;;5.03;1.63;;;21.00;99.90;;;;;;5010912;28;20204;-72
2021/07/29 10:03:07;;;;;;;4.82;1.73;;;21.00;99.90;;;;;;5010935;28;20200;-72
2021/07/29 10:05:46;;;;;;;5.38;2.00;;;20.80;99.90;;;;;;5009339;28;20200;-72
2021/07/29 10:08:21;;;;;;;4.60;2.10;;;20.60;99.90;;;;;;5002073;28;20271;-72
2021/07/29 10:10:49;;;;;;;4.57;1.63;;;20.60;99.90;;;;;;5006355;28;20208;-72
2021/07/29 10:13:15;;;;;;;2.97;1.80;;;21.60;99.90;;;;;;5006229;28;20673;-72
2021/07/29 10:15:44;;;;;;;3.85;1.58;;;21.70;99.90;;;;;;5006030;28;20208;-72
2021/07/29 10:18:12;;;;;;;4.95;1.60;;;21.50;99.90;;;;;;5008834;28;20204;-72
2021/07/29 10:20:40;;;;;;;4.63;1.77;;;21.10;99.90;;;;;;5012403;28;20215;-72
2021/07/29 10:23:29;;;;;;;3.33;1.38;;;21.00;99.90;;;;;;5010584;28;20205;-72
2021/07/29 10:26:11;;;;;;;5.13;1.40;;;21.50;99.90;;;;;;5015815;28;20680;-72
2021/07/29 10:28:39;;;;;;;4.90;1.90;;;22.50;99.90;;;;;;5005858;28;20674;-72
2021/07/29 10:31:13;;;;;;;3.50;1.52;;;22.60;99.90;;;;;;5011906;28;20262;-72
2021/07/29 10:33:40;;;;;;;3.38;1.42;;;22.30;99.90;;;;;;5008735;28;20208;-72
2021/07/29 10:36:09;;;;;;;4.22;1.42;;;21.90;99.90;;;;;;5010707;28;20654;-72
2021/07/29 10:38:53;;;;;;;1.52;1.33;;;21.80;99.90;;;;;;5012614;28;20225;-72
2021/07/29 10:41:56;;;;;;;2.85;1.60;;;21.70;99.90;;;;;;5011277;28;20223;-72
2021/07/29 10:44:46;;;;;;;3.10;1.30;;;22.50;99.90;;;;;;5011190;28;20559;-72
2021/07/29 10:47:17;;;;;;;2.17;1.30;;;23.10;99.90;;;;;;5005944;28;20240;-72
2021/07/29 10:50:10;;;;;;;2.08;1.52;;;23.50;99.90;;;;;;5006553;28;20200;-77
2021/07/29 10:52:38;;;;;;;1.80;1.10;;;22.50;99.90;;;;;;5004396;28;20208;-72
2021/07/29 10:55:09;;;;;;;3.55;1.20;;;22.10;99.90;;;;;;5009750;28;20756;-73
2021/07/29 10:57:36;;;;;;;2.78;1.27;;;22.00;99.90;;;;;;5009562;28;20204;-73
2021/07/29 11:00:04;;;;;;;2.35;0.95;;;22.00;99.90;;;;;;5012173;28;20728;-73
2021/07/29 11:02:41;;;;;;;2.92;1.40;;;23.00;99.90;;;;;;5006626;28;20207;-73
2021/07/29 11:05:09;;;;;;;3.00;1.20;;;23.30;99.90;;;;;;5012361;28;20248;-73
2021/07/29 11:07:41;;;;;;;4.85;1.67;;;23.10;99.90;;;;;;5011016;28;20237;-73
2021/07/29 11:10:12;;;;;;;1.67;1.27;;;22.80;99.90;;;;;;5010088;28;20651;-73
2021/07/29 11:12:45;;;;;;;3.63;1.55;;;23.00;99.90;;;;;;5012746;28;20204;-73
2021/07/29 11:15:13;;;;;;;8.35;1.30;;;22.90;99.90;;;;;;5008291;28;20672;-73
2021/07/29 11:17:40;;;;;;;6.70;1.67;;;23.20;99.90;;;;;;5010886;28;20208;-72
2021/07/29 11:20:08;;;;;;;6.47;1.27;;;23.60;99.90;;;;;;5005011;28;20227;-73
2021/07/29 11:22:48;;;;;;;3.33;1.48;;;23.90;99.90;;;;;;5011662;28;20208;-73
2021/07/29 11:25:17;;;;;;;3.45;1.65;;;24.20;99.90;;;;;;5009600;28;20203;-73
2021/07/29 11:27:44;;;;;;;2.45;1.17;;;24.00;99.90;;;;;;5008709;28;20208;-73
2021/07/29 11:30:12;;;;;;;4.53;2.25;;;24.20;99.90;;;;;;5008975;28;20674;-73
2021/07/29 11:32:41;;;;;;;2.72;1.40;;;24.10;99.90;;;;;;5007124;28;20644;-72
2021/07/29 11:35:11;;;;;;;2.72;1.20;;;23.70;99.90;;;;;;5008090;28;20540;-73
2021/07/29 11:37:40;;;;;;;5.00;1.50;;;23.30;99.90;;;;;;5009665;28;20208;-73
2021/07/29 11:40:17;;;;;;;6.03;1.60;;;24.00;99.90;;;;;;5003915;28;20233;-74
2021/07/29 11:42:45;;;;;;;2.70;1.30;;;23.80;99.90;;;;;;5007559;28;20211;-73
2021/07/29 11:45:23;;;;;;;5.68;1.50;;;24.00;99.90;;;;;;5009571;28;20204;-73
2021/07/29 11:47:50;;;;;;;6.93;1.35;;;23.90;99.90;;;;;;5010819;28;20682;-73
2021/07/29 11:50:17;;;;;;;4.78;1.52;;;23.70;98.70;;;;;;5008260;28;20196;-73
2021/07/29 11:52:52;;;;;;;4.05;1.52;;;24.10;99.20;;;;;;5009669;28;20222;-73
2021/07/29 11:55:20;;;;;;;2.33;1.25;;;24.30;99.90;;;;;;5008663;28;20212;-73
2021/07/29 11:57:49;;;;;;;4.45;1.50;;;24.30;99.90;;;;;;5009431;28;20285;-73
2021/07/29 12:00:27;;;;;;;7.28;1.40;;;24.10;99.70;;;;;;5007820;28;20231;-73
2021/07/29 12:02:55;;;;;;;3.60;1.50;;;24.90;98.90;;;;;;5006236;28;20201;-73
2021/07/29 12:05:23;;;;;;;3.83;1.70;;;24.70;99.80;;;;;;5008446;28;20204;-73
2021/07/29 12:07:52;;;;;;;5.05;1.60;;;24.00;99.80;;;;;;5008306;28;20212;-73
2021/07/29 12:10:20;;;;;;;5.07;1.52;;;24.60;99.90;;;;;;5006855;28;20193;-73
2021/07/29 12:12:48;;;;;;;5.03;1.20;;;24.70;99.10;;;;;;5008187;28;20573;-73
2021/07/29 12:15:15;;;;;;;3.72;1.98;;;24.80;98.90;;;;;;5033638;22;20232;-70
2021/07/29 12:17:43;;;;;;;1.70;1.33;;;25.00;99.90;;;;;;5004715;28;20205;-70
2021/07/29 12:20:12;;;;;;;5.10;1.38;;;24.80;99.90;;;;;;5006074;28;20224;-70
2021/07/29 12:22:42;;;;;;;4.25;1.52;;;24.10;99.90;;;;;;5005095;28;20299;-70
2021/07/29 12:25:11;;;;;;;4.10;1.42;;;23.90;99.40;;;;;;5006105;28;20204;-70
2021/07/29 12:27:45;;;;;;;3.03;1.65;;;23.60;99.90;;;;;;5009383;28;20208;-70
2021/07/29 12:30:29;;;;;;;5.45;1.83;;;23.80;99.60;;;;;;5007932;28;20204;-69
2021/07/29 12:33:09;;;;;;;3.20;1.30;;;23.70;99.90;;;;;;5007956;28;20658;-70
2021/07/29 12:35:36;;;;;;;5.47;1.73;;;23.10;99.90;;;;;;5009786;28;20601;-70
2021/07/29 12:38:04;;;;;;;3.05;1.23;;;22.70;99.90;;;;;;5002886;28;20208;-70
2021/07/29 12:40:32;;;;;;;3.88;1.70;;;23.00;99.90;;;;;;5002292;28;20678;-70
2021/07/29 12:43:22;;;;;;;3.40;1.30;;;23.80;99.90;;;;;;5005792;28;20208;-69
2021/07/29 12:45:55;;;;;;;4.15;1.40;;;23.40;99.90;;;;;;5008247;28;20205;-70
2021/07/29 12:48:23;;;;;;;4.30;1.80;;;23.40;99.90;;;;;;5010173;28;20243;-70
2021/07/29 12:50:50;;;;;;;3.92;1.50;;;23.70;99.90;;;;;;5008415;28;20212;-70
2021/07/29 12:53:18;;;;;;;4.45;1.67;;;23.70;98.90;;;;;;5008920;28;20226;-70
2021/07/29 12:55:46;;;;;;;3.78;1.27;;;23.20;99.50;;;;;;5002222;28;20205;-70
2021/07/29 12:58:14;;;;;;;6.53;1.92;;;23.30;99.90;;;;;;5004568;28;20204;-70